Albuquerque, NM (87106)

12:12 PM MDT on August 24, 2016 (GMT -0600)
UNM | | Change Station

Elev 5280 ft 35.09 °N, 106.62 °W | Updated 3 seconds ago

Scattered Clouds
Scattered Clouds
76.3 °F
Feels Like 78 °F
N
7.0
Wind Variable Wind from WNW
Gusts 7.0 mph

Today
High -- | Low -- °F
--% Chance of Precip.
Yesterday
High -- | Low -- °F
Precip. -- in
Pressure 30.03 in
Visibility 10.0 miles
Clouds Few 5000 ft
Scattered Clouds 11000 ft
Heat Index 78 °F
Dew Point 50 °F
Humidity 40%
Rainfall 0.00 in
Snow Depth Not available.
6:33 AM 7:43 PM
Waning Gibbous, 55% visible
METAR KABQ 241752Z 19003KT 10SM FEW050 SCT110 22/09 A3024 RMK AO2 SLP169 CB DSNT W T02170089 10222 20128 58004
Pressure 30.03 in
Visibility 10.0 miles
Clouds Few 5000 ft
Scattered Clouds 11000 ft
Heat Index 78 °F
Dew Point 50 °F
Humidity 40%
Rainfall 0.00 in
Snow Depth Not available.
6:33 AM 7:43 PM
Waning Gibbous, 55% visible
METAR KABQ 241752Z 19003KT 10SM FEW050 SCT110 22/09 A3024 RMK AO2 SLP169 CB DSNT W T02170089 10222 20128 58004

10-Day Weather Forecast

Almanac

Astronomy

Aug. 24, 2016 Rise Set
Actual Time
Civil Twilight
Nautical Twilight
Astronomical Twilight
Moon
Length of Visible Light
Length of Day
Tomorrow will be .
, % of the Moon is Illuminated

Today's Extremes

State Highs State Lows

Community

WunderPhotos

Upload Photos

1,934,664 photos uploaded!

WunderBlog® & News

Nearby

Air Quality

  Air Quality AQ Index Pollutant
Not available.

Snow Depth

Station Depth Elevation

Earthquake Activity

City Distance Mag. Time & Date
Minimum magnitude displayed is 2.5.

Coastal Water Temperatures

Place Temperature

Stations

Nearby Weather Stations

Station Location Temp. Windchill Dew Point Humidity Wind Precip. Elev Updated Type
                   

Watches & Warnings

There are currently no watches in effect.